Time;durP1;ratioP1;P1;durP2;ratioP2;P2;SDS_P1;SDS_P2;PMS_P1;PMS_P2;Temp;Humidity;BMP_temperature;BMP_pressure;BME280_temperature;BME280_humidity;BME280_pressure;Samples;Min_cycle;Max_cycle;Signal;HPM_P1;HPM_P2
2022/03/20 00:00:22;;;;;;;34.05;18.63;;;;;;;;;;5080669;28;20708;-74
2022/03/20 00:02:49;;;;;;;36.97;18.42;;;;;;;;;;5086901;28;20044;-74
2022/03/20 00:05:15;;;;;;;34.38;19.40;;;;;;;;;;5085993;28;20036;-74
2022/03/20 00:07:41;;;;;;;37.70;18.75;;;;;;;;;;5077673;28;20416;-74
2022/03/20 00:10:08;;;;;;;34.20;18.50;;;;;;;;;;5086542;28;20447;-74
2022/03/20 00:12:34;;;;;;;33.92;18.45;;;;;;;;;;5080715;28;20032;-74
2022/03/20 00:15:00;;;;;;;35.03;19.02;;;;;;;;;;5087284;28;20676;-74
2022/03/20 00:17:26;;;;;;;34.65;20.08;;;;;;;;;;5076028;28;20031;-74
2022/03/20 00:19:52;;;;;;;36.42;18.80;;;;;;;;;;5089081;28;20031;-73
2022/03/20 00:22:18;;;;;;;38.50;19.77;;;;;;;;;;5079619;28;20103;-74
2022/03/20 00:24:44;;;;;;;31.70;18.02;;;;;;;;;;5078210;28;20020;-74
2022/03/20 00:27:15;;;;;;;34.60;18.98;;;;;;;;;;5080710;28;20390;-73
2022/03/20 00:29:41;;;;;;;35.38;18.40;;;;;;;;;;5086589;28;20040;-73
2022/03/20 00:32:08;;;;;;;34.92;18.60;;;;;;;;;;5085304;28;20422;-74
2022/03/20 00:34:34;;;;;;;34.53;18.85;;;;;;;;;;5083424;28;20056;-74
2022/03/20 00:37:01;;;;;;;35.17;18.85;;;;;;;;;;5079390;28;20513;-74
2022/03/20 00:39:27;;;;;;;36.17;19.00;;;;;;;;;;5089493;28;20557;-74
2022/03/20 00:41:53;;;;;;;37.22;18.30;;;;;;;;;;5082899;28;20143;-74
2022/03/20 00:44:19;;;;;;;34.10;18.40;;;;;;;;;;5079029;28;20032;-74
2022/03/20 00:46:44;;;;;;;38.00;19.50;;;;;;;;;;5085494;28;20502;-74
2022/03/20 00:49:11;;;;;;;34.70;18.73;;;;;;;;;;5086415;28;20031;-74
2022/03/20 00:51:37;;;;;;;36.22;19.23;;;;;;;;;;5089042;28;20129;-74
2022/03/20 00:54:03;;;;;;;34.63;18.85;;;;;;;;;;5086110;28;20154;-73
2022/03/20 00:56:29;;;;;;;38.50;18.10;;;;;;;;;;5083992;28;20044;-74
2022/03/20 00:58:54;;;;;;;34.00;18.30;;;;;;;;;;5081808;28;20035;-74
2022/03/20 01:01:21;;;;;;;38.03;19.27;;;;;;;;;;5086248;28;20024;-74
2022/03/20 01:03:46;;;;;;;40.38;19.13;;;;;;;;;;5084001;28;20494;-74
2022/03/20 01:06:12;;;;;;;38.63;19.20;;;;;;;;;;5085043;28;20044;-74
2022/03/20 01:08:39;;;;;;;34.72;19.50;;;;;;;;;;5086652;28;20032;-74
2022/03/20 01:11:05;;;;;;;33.53;19.10;;;;;;;;;;5076222;28;20036;-74
2022/03/20 01:13:31;;;;;;;39.67;20.50;;;;;;;;;;5078713;28;20082;-73
2022/03/20 01:15:57;;;;;;;37.78;18.70;;;;;;;;;;5075697;28;20035;-74
2022/03/20 01:18:26;;;;;;;37.85;20.33;;;;;;;;;;5079118;28;20025;-74
2022/03/20 01:20:53;;;;;;;38.42;19.45;;;;;;;;;;5087965;28;20032;-73
2022/03/20 01:23:21;;;;;;;37.25;19.13;;;;;;;;;;5089084;28;20028;-74
2022/03/20 01:25:47;;;;;;;37.30;19.80;;;;;;;;;;5080368;28;20478;-74
2022/03/20 01:28:13;;;;;;;44.50;20.63;;;;;;;;;;5082151;28;20024;-74
2022/03/20 01:30:39;;;;;;;42.70;19.80;;;;;;;;;;5086802;28;20463;-74
2022/03/20 01:33:08;;;;;;;37.63;19.48;;;;;;;;;;5080294;28;20047;-73
2022/03/20 01:35:35;;;;;;;35.63;19.58;;;;;;;;;;5089193;28;20058;-74
2022/03/20 01:38:01;;;;;;;37.80;19.38;;;;;;;;;;5089878;28;20016;-73
2022/03/20 01:40:28;;;;;;;34.17;19.08;;;;;;;;;;5089756;28;20059;-73
2022/03/20 01:42:54;;;;;;;39.80;20.38;;;;;;;;;;5091014;28;20031;-74
2022/03/20 01:45:20;;;;;;;40.83;20.13;;;;;;;;;;5082851;28;20028;-74
2022/03/20 01:47:49;;;;;;;39.30;19.42;;;;;;;;;;5079573;28;20028;-75
2022/03/20 01:50:16;;;;;;;37.83;19.20;;;;;;;;;;5076843;28;20101;-74
2022/03/20 01:52:43;;;;;;;42.17;19.98;;;;;;;;;;5085506;28;20041;-74
2022/03/20 01:55:09;;;;;;;39.25;20.38;;;;;;;;;;5085756;28;20039;-74
2022/03/20 01:57:38;;;;;;;38.70;19.98;;;;;;;;;;5078430;28;20021;-73
2022/03/20 02:00:06;;;;;;;37.75;20.25;;;;;;;;;;5085653;28;20052;-74
2022/03/20 02:02:31;;;;;;;37.47;20.50;;;;;;;;;;5087091;28;20099;-73
2022/03/20 02:04:57;;;;;;;45.08;20.40;;;;;;;;;;5084448;28;20112;-73
2022/03/20 02:07:25;;;;;;;36.67;18.92;;;;;;;;;;5086255;28;20062;-74
2022/03/20 02:09:51;;;;;;;40.42;20.17;;;;;;;;;;5087846;28;20032;-74
2022/03/20 02:12:17;;;;;;;37.70;20.48;;;;;;;;;;5086880;28;20054;-74
2022/03/20 02:14:43;;;;;;;38.08;20.20;;;;;;;;;;5091077;28;20487;-73
2022/03/20 02:17:13;;;;;;;36.60;19.38;;;;;;;;;;5081737;28;20115;-74
2022/03/20 02:19:39;;;;;;;35.05;19.48;;;;;;;;;;5087316;28;20048;-73
2022/03/20 02:22:06;;;;;;;39.30;19.02;;;;;;;;;;5079918;28;20082;-73
2022/03/20 02:24:38;;;;;;;41.30;19.70;;;;;;;;;;5083770;28;20458;-73
2022/03/20 02:27:12;;;;;;;36.70;19.00;;;;;;;;;;5085047;28;20060;-74
2022/03/20 02:29:39;;;;;;;41.25;19.88;;;;;;;;;;5080980;28;20031;-73
2022/03/20 02:32:06;;;;;;;36.35;19.55;;;;;;;;;;5082474;28;20498;-73
2022/03/20 02:34:33;;;;;;;35.85;19.08;;;;;;;;;;5085705;28;20451;-73
2022/03/20 02:37:00;;;;;;;32.50;18.17;;;;;;;;;;5077211;28;20024;-74
2022/03/20 02:39:26;;;;;;;37.08;19.13;;;;;;;;;;5089908;28;20494;-73
2022/03/20 02:41:54;;;;;;;37.45;19.60;;;;;;;;;;5089261;28;20471;-73
2022/03/20 02:44:20;;;;;;;39.55;19.88;;;;;;;;;;5079818;28;20095;-74
2022/03/20 02:46:46;;;;;;;38.22;19.30;;;;;;;;;;5086257;28;20065;-73
2022/03/20 02:49:13;;;;;;;38.17;18.67;;;;;;;;;;5083735;28;20040;-73
2022/03/20 02:51:39;;;;;;;36.47;19.52;;;;;;;;;;5082767;28;20035;-74
2022/03/20 02:54:05;;;;;;;37.72;19.55;;;;;;;;;;5077116;28;20031;-74
2022/03/20 02:56:33;;;;;;;33.47;19.23;;;;;;;;;;5088660;28;20475;-74
2022/03/20 02:58:59;;;;;;;37.92;19.05;;;;;;;;;;5083597;28;20414;-74
2022/03/20 03:01:25;;;;;;;36.20;18.42;;;;;;;;;;5082599;28;20031;-74
2022/03/20 03:03:53;;;;;;;38.42;19.42;;;;;;;;;;5073731;28;20135;-73
2022/03/20 03:06:19;;;;;;;34.33;18.33;;;;;;;;;;5089558;28;20047;-73
2022/03/20 03:11:30;;;;;;;38.83;19.40;;;;;;;;;;5079388;28;20097;-74
2022/03/20 03:13:56;;;;;;;34.80;19.50;;;;;;;;;;5089504;28;20046;-74
2022/03/20 03:16:22;;;;;;;36.17;18.88;;;;;;;;;;5078961;28;20026;-74
2022/03/20 03:18:48;;;;;;;36.05;18.75;;;;;;;;;;5087157;28;20489;-74
2022/03/20 03:21:15;;;;;;;36.53;19.00;;;;;;;;;;5087605;28;20062;-73
2022/03/20 03:23:42;;;;;;;36.92;18.80;;;;;;;;;;5079875;28;20617;-73
2022/03/20 03:26:08;;;;;;;33.72;19.00;;;;;;;;;;5087603;28;20071;-73
2022/03/20 03:28:35;;;;;;;39.65;18.92;;;;;;;;;;5090584;28;20059;-74
2022/03/20 03:31:02;;;;;;;37.83;19.88;;;;;;;;;;5083300;28;20097;-74
2022/03/20 03:33:28;;;;;;;35.30;18.27;;;;;;;;;;5077721;28;20039;-74
2022/03/20 03:35:54;;;;;;;35.53;18.50;;;;;;;;;;5089076;28;20055;-74
2022/03/20 03:38:22;;;;;;;37.20;19.60;;;;;;;;;;5087538;28;20028;-74
2022/03/20 03:40:48;;;;;;;31.38;18.23;;;;;;;;;;5085313;28;20049;-74
2022/03/20 03:43:15;;;;;;;36.63;19.30;;;;;;;;;;5086550;28;20030;-73
2022/03/20 03:45:42;;;;;;;38.42;19.50;;;;;;;;;;5082481;28;20084;-74
2022/03/20 03:48:09;;;;;;;38.83;20.30;;;;;;;;;;5088512;28;20016;-73
2022/03/20 03:50:36;;;;;;;35.72;19.10;;;;;;;;;;5079008;28;20028;-74
2022/03/20 03:53:03;;;;;;;40.13;19.42;;;;;;;;;;5073668;28;20048;-73
2022/03/20 03:55:29;;;;;;;37.03;19.23;;;;;;;;;;5087627;28;20032;-74
2022/03/20 03:57:55;;;;;;;38.55;18.85;;;;;;;;;;5087913;28;20020;-73
2022/03/20 04:00:21;;;;;;;33.38;19.35;;;;;;;;;;5074110;28;20017;-73
2022/03/20 04:02:48;;;;;;;33.58;18.92;;;;;;;;;;5082526;28;20031;-74
2022/03/20 04:05:20;;;;;;;35.30;19.45;;;;;;;;;;5088232;28;20036;-73
2022/03/20 04:07:47;;;;;;;38.90;19.52;;;;;;;;;;5083144;28;20043;-73
2022/03/20 04:10:13;;;;;;;34.42;18.67;;;;;;;;;;5080571;28;20036;-74
2022/03/20 04:12:40;;;;;;;37.60;19.48;;;;;;;;;;5078776;28;20032;-74
2022/03/20 04:15:07;;;;;;;37.58;18.90;;;;;;;;;;5077662;28;20040;-74
2022/03/20 04:17:33;;;;;;;39.35;19.92;;;;;;;;;;5090872;28;20077;-74
2022/03/20 04:19:59;;;;;;;38.15;20.10;;;;;;;;;;5090695;28;20538;-74
2022/03/20 04:22:25;;;;;;;36.78;18.65;;;;;;;;;;5079116;28;22456;-74
2022/03/20 04:24:52;;;;;;;39.97;19.95;;;;;;;;;;5087421;28;20024;-73
2022/03/20 04:27:18;;;;;;;40.60;19.63;;;;;;;;;;5083965;28;20070;-73
2022/03/20 04:29:44;;;;;;;40.08;18.98;;;;;;;;;;5079911;28;20089;-74
2022/03/20 04:32:11;;;;;;;38.05;19.58;;;;;;;;;;5083442;28;20047;-74
2022/03/20 04:34:37;;;;;;;42.13;20.45;;;;;;;;;;5081879;28;20081;-74
2022/03/20 04:37:06;;;;;;;38.33;20.25;;;;;;;;;;5084121;28;20536;-74
2022/03/20 04:39:35;;;;;;;39.53;20.45;;;;;;;;;;5079916;28;20127;-72
2022/03/20 04:42:02;;;;;;;40.20;19.65;;;;;;;;;;5087652;28;20055;-73
2022/03/20 04:44:28;;;;;;;40.60;20.33;;;;;;;;;;5084919;28;20028;-74
2022/03/20 04:46:54;;;;;;;37.60;20.08;;;;;;;;;;5084709;28;20276;-74
2022/03/20 05:00:19;;;;;;;42.17;20.38;;;;;;;;;;5076386;28;20102;-73
2022/03/20 05:02:45;;;;;;;42.05;20.92;;;;;;;;;;5077025;28;20016;-73
2022/03/20 05:05:11;;;;;;;42.38;20.15;;;;;;;;;;5081400;28;20020;-73
2022/03/20 05:07:37;;;;;;;38.42;20.17;;;;;;;;;;5078130;28;20050;-74
2022/03/20 05:15:33;;;;;;;43.20;20.48;;;;;;;;;;5089824;28;20112;-74
2022/03/20 05:17:59;;;;;;;39.88;20.98;;;;;;;;;;5088068;28;20052;-74
2022/03/20 05:20:26;;;;;;;42.63;20.40;;;;;;;;;;5084461;28;20047;-74
2022/03/20 05:22:52;;;;;;;38.10;19.27;;;;;;;;;;5083986;28;20032;-74
2022/03/20 05:25:18;;;;;;;39.42;20.02;;;;;;;;;;5086498;28;20023;-74
2022/03/20 05:27:44;;;;;;;39.83;20.35;;;;;;;;;;5086639;28;20127;-74
2022/03/20 05:30:11;;;;;;;44.63;20.38;;;;;;;;;;5083265;28;20044;-74
2022/03/20 05:32:38;;;;;;;39.65;19.63;;;;;;;;;;5082752;28;20516;-75
2022/03/20 05:35:05;;;;;;;39.83;20.73;;;;;;;;;;5076714;28;21255;-75
2022/03/20 05:37:31;;;;;;;42.33;20.55;;;;;;;;;;5085213;28;20034;-74
2022/03/20 05:39:58;;;;;;;33.88;19.27;;;;;;;;;;5092355;28;20490;-75
2022/03/20 05:42:24;;;;;;;42.20;21.55;;;;;;;;;;5082044;28;20130;-74
2022/03/20 05:44:50;;;;;;;37.80;20.50;;;;;;;;;;5075048;28;20527;-74
2022/03/20 05:47:16;;;;;;;37.92;20.17;;;;;;;;;;5088051;28;20085;-74
2022/03/20 05:49:42;;;;;;;44.72;21.58;;;;;;;;;;5080807;28;20063;-74
2022/03/20 05:52:08;;;;;;;45.20;20.15;;;;;;;;;;5083038;28;20439;-74
2022/03/20 05:54:35;;;;;;;39.25;20.05;;;;;;;;;;5081013;28;20085;-74
2022/03/20 05:59:45;;;;;;;43.30;20.50;;;;;;;;;;5089236;28;20030;-74
2022/03/20 06:02:11;;;;;;;43.63;20.13;;;;;;;;;;5080699;28;20601;-74
2022/03/20 06:04:40;;;;;;;38.85;19.52;;;;;;;;;;5084612;28;20020;-74
2022/03/20 06:07:08;;;;;;;38.13;19.95;;;;;;;;;;5082061;28;20079;-74
2022/03/20 06:09:34;;;;;;;37.67;19.85;;;;;;;;;;5089724;28;20020;-74
2022/03/20 06:12:00;;;;;;;36.60;19.80;;;;;;;;;;5091472;28;20073;-74
2022/03/20 06:14:26;;;;;;;40.60;20.83;;;;;;;;;;5082765;28;20017;-73
2022/03/20 06:16:52;;;;;;;37.05;19.60;;;;;;;;;;5080601;28;20059;-74
2022/03/20 06:19:18;;;;;;;38.30;20.10;;;;;;;;;;5083716;28;20023;-74
2022/03/20 06:21:46;;;;;;;33.25;18.15;;;;;;;;;;5076912;28;20025;-74
2022/03/20 06:24:12;;;;;;;37.53;19.85;;;;;;;;;;5084882;28;20089;-74
2022/03/20 06:26:38;;;;;;;34.85;19.80;;;;;;;;;;5085567;28;20078;-73
2022/03/20 06:29:07;;;;;;;36.67;19.65;;;;;;;;;;5084321;28;20024;-74
2022/03/20 06:31:33;;;;;;;33.80;18.80;;;;;;;;;;5086009;28;20024;-74
2022/03/20 06:33:59;;;;;;;40.60;20.33;;;;;;;;;;5090762;28;20035;-74
2022/03/20 06:36:26;;;;;;;36.58;20.05;;;;;;;;;;5081836;28;20028;-74
2022/03/20 06:38:52;;;;;;;40.05;20.20;;;;;;;;;;5085061;28;20028;-75
2022/03/20 06:41:18;;;;;;;37.47;20.17;;;;;;;;;;5078682;28;20036;-74
2022/03/20 06:43:44;;;;;;;35.53;19.90;;;;;;;;;;5090878;28;20024;-74
2022/03/20 06:46:10;;;;;;;39.63;19.45;;;;;;;;;;5085575;28;20070;-73
2022/03/20 06:48:36;;;;;;;38.50;20.33;;;;;;;;;;5084205;28;20081;-74
2022/03/20 06:51:04;;;;;;;35.60;19.45;;;;;;;;;;5076851;28;20135;-74
2022/03/20 06:53:30;;;;;;;37.75;19.25;;;;;;;;;;5082192;28;20028;-74
2022/03/20 06:55:56;;;;;;;38.35;20.10;;;;;;;;;;5085012;28;20040;-74
2022/03/20 06:58:23;;;;;;;39.15;19.42;;;;;;;;;;5085903;28;20029;-75
2022/03/20 07:00:49;;;;;;;39.25;20.20;;;;;;;;;;5071590;28;20070;-75
2022/03/20 07:03:18;;;;;;;36.05;18.58;;;;;;;;;;5083098;28;20107;-75
2022/03/20 07:05:44;;;;;;;40.35;19.85;;;;;;;;;;5079365;28;20028;-75
2022/03/20 07:08:10;;;;;;;34.42;18.98;;;;;;;;;;5075931;28;20096;-75
2022/03/20 07:10:36;;;;;;;38.08;18.92;;;;;;;;;;5072879;28;20051;-74
2022/03/20 07:15:49;;;;;;;39.38;19.35;;;;;;;;;;5076949;28;20035;-74
2022/03/20 07:18:15;;;;;;;40.63;20.38;;;;;;;;;;5079431;28;20052;-74
2022/03/20 07:20:43;;;;;;;39.13;19.20;;;;;;;;;;5073448;28;20481;-74
2022/03/20 07:23:09;;;;;;;38.65;19.30;;;;;;;;;;5083632;28;20044;-74
2022/03/20 07:31:07;;;;;;;41.10;19.45;;;;;;;;;;5075654;28;20039;-74
2022/03/20 07:33:41;;;;;;;41.17;20.45;;;;;;;;;;5079207;28;20025;-75
2022/03/20 07:36:07;;;;;;;40.58;19.65;;;;;;;;;;5071325;28;20024;-74
2022/03/20 07:38:37;;;;;;;38.67;19.80;;;;;;;;;;5072653;28;20039;-74
2022/03/20 07:41:03;;;;;;;35.08;18.38;;;;;;;;;;5084044;28;20028;-74
2022/03/20 07:43:29;;;;;;;40.00;19.90;;;;;;;;;;5081671;28;20034;-74
2022/03/20 07:45:58;;;;;;;37.88;18.55;;;;;;;;;;5078917;28;20020;-74
2022/03/20 07:48:24;;;;;;;36.22;18.75;;;;;;;;;;5088940;28;20035;-74
2022/03/20 07:50:50;;;;;;;34.53;18.75;;;;;;;;;;5073015;28;20028;-73
2022/03/20 07:53:17;;;;;;;34.13;19.17;;;;;;;;;;5081142;28;20165;-74
2022/03/20 07:55:43;;;;;;;39.05;19.30;;;;;;;;;;5077074;28;20023;-74
2022/03/20 07:58:09;;;;;;;36.33;19.35;;;;;;;;;;5072505;28;20039;-74
2022/03/20 08:00:38;;;;;;;37.95;19.30;;;;;;;;;;5078507;28;20020;-74
2022/03/20 08:03:05;;;;;;;38.80;19.77;;;;;;;;;;5081320;28;20024;-74
2022/03/20 08:05:30;;;;;;;30.63;17.77;;;;;;;;;;5077109;28;20021;-74
2022/03/20 08:07:56;;;;;;;35.05;18.08;;;;;;;;;;5083369;28;20129;-75
2022/03/20 08:10:22;;;;;;;38.80;18.48;;;;;;;;;;5085262;28;20123;-74
2022/03/20 08:12:48;;;;;;;35.17;19.95;;;;;;;;;;5080782;28;20751;-74
2022/03/20 08:15:16;;;;;;;36.60;18.33;;;;;;;;;;5071095;28;20055;-74
2022/03/20 08:17:43;;;;;;;32.83;17.95;;;;;;;;;;5082713;28;20115;-74
2022/03/20 08:20:10;;;;;;;36.88;18.45;;;;;;;;;;5082245;28;20036;-74
2022/03/20 08:22:37;;;;;;;35.47;18.70;;;;;;;;;;5075488;28;20020;-74
2022/03/20 08:25:03;;;;;;;35.63;18.27;;;;;;;;;;5073953;28;20020;-75
2022/03/20 08:27:29;;;;;;;34.83;18.33;;;;;;;;;;5072045;28;20024;-74
2022/03/20 08:29:58;;;;;;;35.05;18.58;;;;;;;;;;5072621;28;20372;-73
2022/03/20 08:32:25;;;;;;;43.97;18.52;;;;;;;;;;5073316;28;20032;-73
2022/03/20 08:35:04;;;;;;;33.38;17.63;;;;;;;;;;5083356;28;20031;-72
2022/03/20 08:37:31;;;;;;;33.03;18.15;;;;;;;;;;5076878;28;20025;-74
2022/03/20 08:40:04;;;;;;;31.45;17.30;;;;;;;;;;5085104;28;20150;-77
2022/03/20 08:42:30;;;;;;;30.83;17.45;;;;;;;;;;5075057;28;20034;-75
2022/03/20 08:44:56;;;;;;;34.40;18.83;;;;;;;;;;5078223;28;20111;-72
2022/03/20 08:47:21;;;;;;;31.83;18.10;;;;;;;;;;5085095;28;20032;-73
2022/03/20 08:49:49;;;;;;;36.83;18.38;;;;;;;;;;5073489;28;20460;-70
2022/03/20 08:52:15;;;;;;;37.42;18.90;;;;;;;;;;5074377;28;20032;-70
2022/03/20 08:54:41;;;;;;;41.97;18.35;;;;;;;;;;5082059;28;20289;-70
2022/03/20 08:57:08;;;;;;;37.35;18.35;;;;;;;;;;5077286;28;20093;-70
2022/03/20 08:59:36;;;;;;;35.45;18.25;;;;;;;;;;5082284;28;20024;-70
2022/03/20 09:02:02;;;;;;;34.72;18.50;;;;;;;;;;5080276;28;20487;-70
2022/03/20 09:04:28;;;;;;;32.42;17.58;;;;;;;;;;5076548;28;20045;-70
2022/03/20 09:06:54;;;;;;;33.05;17.65;;;;;;;;;;5082622;28;20056;-71
2022/03/20 09:09:20;;;;;;;29.05;17.50;;;;;;;;;;5080797;28;20107;-73
2022/03/20 09:11:47;;;;;;;32.95;18.17;;;;;;;;;;5078416;28;20028;-72
2022/03/20 09:14:13;;;;;;;32.17;18.58;;;;;;;;;;5083898;28;20100;-71
2022/03/20 09:19:26;;;;;;;34.22;18.00;;;;;;;;;;5059164;28;20032;-72
2022/03/20 09:21:52;;;;;;;34.78;17.75;;;;;;;;;;5083154;28;20229;-73
2022/03/20 09:24:18;;;;;;;30.00;18.23;;;;;;;;;;5082110;28;20027;-71
2022/03/20 09:26:44;;;;;;;34.17;18.17;;;;;;;;;;5083837;28;20036;-73
2022/03/20 09:29:10;;;;;;;30.00;18.10;;;;;;;;;;5082108;28;20036;-73
2022/03/20 09:31:36;;;;;;;34.78;18.83;;;;;;;;;;5084071;28;20021;-71
2022/03/20 09:34:02;;;;;;;31.63;17.95;;;;;;;;;;5073578;28;20043;-72
2022/03/20 09:36:29;;;;;;;34.85;18.35;;;;;;;;;;5077165;28;20024;-73
2022/03/20 09:38:55;;;;;;;31.17;18.08;;;;;;;;;;5081498;28;20108;-73
2022/03/20 09:41:23;;;;;;;32.67;18.85;;;;;;;;;;5076971;28;20035;-73
2022/03/20 09:43:49;;;;;;;31.75;17.70;;;;;;;;;;5082189;28;20528;-73
2022/03/20 09:46:15;;;;;;;33.17;18.10;;;;;;;;;;5087317;28;20032;-73
2022/03/20 09:48:42;;;;;;;30.17;17.40;;;;;;;;;;5081818;28;20616;-73
2022/03/20 09:51:09;;;;;;;31.42;16.85;;;;;;;;;;5081387;28;20032;-73
2022/03/20 09:53:35;;;;;;;31.95;17.80;;;;;;;;;;5079402;28;20036;-73
2022/03/20 09:56:05;;;;;;;30.20;17.42;;;;;;;;;;5081041;28;20028;-74
2022/03/20 09:58:31;;;;;;;31.40;18.23;;;;;;;;;;5085366;28;20076;-74
2022/03/20 10:00:57;;;;;;;34.90;18.50;;;;;;;;;;5087451;28;20107;-74
2022/03/20 10:03:24;;;;;;;29.58;18.13;;;;;;;;;;5084658;28;20035;-72
2022/03/20 10:06:16;;;;;;;29.48;17.48;;;;;;;;;;5073735;28;20490;-74
2022/03/20 10:09:11;;;;;;;32.55;17.80;;;;;;;;;;5088929;28;20020;-74
2022/03/20 10:11:47;;;;;;;33.70;17.55;;;;;;;;;;5066604;28;20037;-72
2022/03/20 10:14:17;;;;;;;29.25;17.08;;;;;;;;;;5082400;28;20432;-70
2022/03/20 10:16:45;;;;;;;28.38;17.10;;;;;;;;;;5074135;28;20028;-71
2022/03/20 10:19:23;;;;;;;30.58;17.42;;;;;;;;;;5070423;28;20156;-70
2022/03/20 10:22:15;;;;;;;30.15;18.02;;;;;;;;;;5074341;28;20036;-70
2022/03/20 10:24:47;;;;;;;32.13;16.77;;;;;;;;;;5069915;28;20546;-72
2022/03/20 10:27:14;;;;;;;27.73;16.83;;;;;;;;;;5084630;28;20039;-71
2022/03/20 10:29:47;;;;;;;30.88;17.15;;;;;;;;;;5085248;28;20071;-70
2022/03/20 10:32:13;;;;;;;31.38;16.42;;;;;;;;;;5082557;28;20020;-69
2022/03/20 10:35:01;;;;;;;32.88;17.85;;;;;;;;;;5083024;28;20497;-71
2022/03/20 10:37:44;;;;;;;28.73;16.83;;;;;;;;;;5086356;28;20031;-73
2022/03/20 10:40:11;;;;;;;27.02;17.27;;;;;;;;;;5080742;28;20364;-74
2022/03/20 10:42:37;;;;;;;28.42;17.30;;;;;;;;;;5074973;28;20035;-74
2022/03/20 10:45:07;;;;;;;29.83;16.70;;;;;;;;;;5082363;28;20924;-73
2022/03/20 10:47:33;;;;;;;35.80;16.92;;;;;;;;;;5076945;28;20032;-70
2022/03/20 10:50:09;;;;;;;28.30;16.63;;;;;;;;;;5080384;28;20038;-72
2022/03/20 10:52:36;;;;;;;34.25;15.20;;;;;;;;;;5083294;28;20027;-71
2022/03/20 10:55:12;;;;;;;28.00;15.60;;;;;;;;;;5084366;28;20115;-71
2022/03/20 10:57:39;;;;;;;23.73;14.85;;;;;;;;;;5079252;28;20024;-71
2022/03/20 11:00:10;;;;;;;25.02;15.13;;;;;;;;;;5083915;28;20425;-69
2022/03/20 11:02:39;;;;;;;26.67;15.95;;;;;;;;;;5082139;28;20375;-70
2022/03/20 11:05:05;;;;;;;22.38;13.90;;;;;;;;;;5079200;28;20076;-70
2022/03/20 11:07:32;;;;;;;22.77;15.15;;;;;;;;;;5082908;28;20044;-69
2022/03/20 11:10:00;;;;;;;24.88;14.88;;;;;;;;;;5076911;28;20066;-70
2022/03/20 11:12:27;;;;;;;23.10;14.48;;;;;;;;;;5086844;28;20036;-71
2022/03/20 11:14:54;;;;;;;25.73;15.45;;;;;;;;;;5088272;28;20119;-70
2022/03/20 11:17:22;;;;;;;22.80;15.07;;;;;;;;;;5081581;28;20020;-71
2022/03/20 11:19:50;;;;;;;25.15;15.48;;;;;;;;;;5088305;28;20027;-70
2022/03/20 11:22:19;;;;;;;25.27;15.27;;;;;;;;;;5086750;28;20050;-71
2022/03/20 11:24:47;;;;;;;23.30;15.73;;;;;;;;;;5085803;28;20804;-71
2022/03/20 11:27:15;;;;;;;24.02;15.43;;;;;;;;;;5075318;28;20023;-71
2022/03/20 11:29:48;;;;;;;24.33;14.77;;;;;;;;;;5082914;28;20035;-71
2022/03/20 11:32:14;;;;;;;24.77;15.63;;;;;;;;;;5085636;28;20036;-71
2022/03/20 11:34:40;;;;;;;23.40;15.13;;;;;;;;;;5087173;28;20036;-69
2022/03/20 11:37:07;;;;;;;25.27;15.93;;;;;;;;;;5079912;28;20039;-70
2022/03/20 11:39:34;;;;;;;23.15;15.45;;;;;;;;;;5084616;28;20401;-68
2022/03/20 11:42:19;;;;;;;23.48;14.90;;;;;;;;;;5084988;28;20024;-70
2022/03/20 11:44:51;;;;;;;23.55;15.68;;;;;;;;;;5084158;28;20035;-70
2022/03/20 11:47:18;;;;;;;26.40;16.35;;;;;;;;;;5085871;28;20031;-71
2022/03/20 11:49:43;;;;;;;22.98;15.27;;;;;;;;;;5085349;28;20038;-69
2022/03/20 11:52:14;;;;;;;26.30;17.55;;;;;;;;;;5082138;28;20036;-70
2022/03/20 11:54:40;;;;;;;24.20;16.00;;;;;;;;;;5082543;28;20117;-70
2022/03/20 11:57:24;;;;;;;23.40;15.75;;;;;;;;;;5082577;28;20067;-71
2022/03/20 11:59:51;;;;;;;27.58;15.18;;;;;;;;;;5081199;28;20043;-70
2022/03/20 12:02:18;;;;;;;21.38;15.18;;;;;;;;;;5081251;28;20029;-72
2022/03/20 12:05:02;;;;;;;22.65;15.23;;;;;;;;;;5085510;28;20016;-70
2022/03/20 12:07:55;;;;;;;26.60;15.75;;;;;;;;;;5072487;28;20036;-70
2022/03/20 12:10:27;;;;;;;23.45;15.43;;;;;;;;;;5080769;28;20036;-70
2022/03/20 12:13:15;;;;;;;22.63;14.65;;;;;;;;;;5081705;28;20031;-71
2022/03/20 12:15:42;;;;;;;22.85;15.15;;;;;;;;;;5075007;28;20117;-71
2022/03/20 12:18:10;;;;;;;20.92;14.80;;;;;;;;;;5078664;28;20032;-71
2022/03/20 12:20:52;;;;;;;23.60;15.30;;;;;;;;;;5074661;28;20032;-72
2022/03/20 12:23:35;;;;;;;21.77;14.55;;;;;;;;;;5074939;28;20483;-72
2022/03/20 12:26:20;;;;;;;19.30;13.68;;;;;;;;;;5076540;28;20031;-73
2022/03/20 12:28:46;;;;;;;25.38;14.98;;;;;;;;;;5081561;28;20032;-72
2022/03/20 12:31:12;;;;;;;22.23;14.30;;;;;;;;;;5085562;28;20020;-72
2022/03/20 12:33:38;;;;;;;25.52;15.50;;;;;;;;;;5080916;28;20031;-72
2022/03/20 12:36:04;;;;;;;24.23;15.55;;;;;;;;;;5088217;28;20028;-72
2022/03/20 12:38:34;;;;;;;20.90;14.63;;;;;;;;;;5081027;28;20028;-71
2022/03/20 12:41:14;;;;;;;19.02;13.65;;;;;;;;;;5088482;28;20024;-72
2022/03/20 12:43:40;;;;;;;21.60;13.65;;;;;;;;;;5079573;28;20024;-72
2022/03/20 12:46:10;;;;;;;21.25;14.32;;;;;;;;;;5084803;28;20017;-72
2022/03/20 12:48:36;;;;;;;20.05;13.68;;;;;;;;;;5084521;28;20526;-73
2022/03/20 12:51:10;;;;;;;19.92;14.07;;;;;;;;;;5081685;28;20028;-71
2022/03/20 12:53:38;;;;;;;20.52;13.95;;;;;;;;;;5081437;28;20488;-72
2022/03/20 12:56:09;;;;;;;21.58;13.63;;;;;;;;;;5076777;28;21841;-72
2022/03/20 12:58:35;;;;;;;24.45;14.23;;;;;;;;;;5073130;28;20025;-70
2022/03/20 13:01:07;;;;;;;19.75;13.68;;;;;;;;;;5080797;28;20086;-72
2022/03/20 13:03:33;;;;;;;20.77;13.65;;;;;;;;;;5082503;28;20631;-71
2022/03/20 13:06:03;;;;;;;21.20;13.50;;;;;;;;;;5080586;28;20368;-72
2022/03/20 13:08:36;;;;;;;19.10;13.35;;;;;;;;;;5077185;28;20486;-72
2022/03/20 13:11:48;;;;;;;20.25;14.00;;;;;;;;;;5079202;28;20020;-72
2022/03/20 13:14:04;;;;;;;20.48;13.85;;;;;;;;;;5079247;28;20037;-72
2022/03/20 13:16:30;;;;;;;20.48;13.13;;;;;;;;;;5073614;28;20483;-73
2022/03/20 13:18:56;;;;;;;21.77;13.13;;;;;;;;;;5077636;28;20033;-72
2022/03/20 13:21:22;;;;;;;21.48;13.15;;;;;;;;;;5082176;28;20029;-72
2022/03/20 13:23:49;;;;;;;16.75;12.52;;;;;;;;;;5077938;28;20074;-71
2022/03/20 13:26:18;;;;;;;21.02;12.50;;;;;;;;;;5083747;28;20032;-71
2022/03/20 13:28:45;;;;;;;19.00;12.18;;;;;;;;;;5074949;28;20076;-71
2022/03/20 13:31:16;;;;;;;22.15;12.75;;;;;;;;;;5080979;28;20032;-71
2022/03/20 13:33:51;;;;;;;18.38;12.63;;;;;;;;;;5088983;28;20020;-71
2022/03/20 13:36:17;;;;;;;17.58;12.50;;;;;;;;;;5091783;28;20032;-71
2022/03/20 13:38:43;;;;;;;17.67;12.40;;;;;;;;;;5084374;28;20501;-71
2022/03/20 13:41:11;;;;;;;20.08;12.50;;;;;;;;;;5082065;28;20031;-71
2022/03/20 13:43:37;;;;;;;18.02;12.00;;;;;;;;;;5088266;28;20029;-71
2022/03/20 13:46:10;;;;;;;16.48;11.88;;;;;;;;;;5084622;28;20437;-71
2022/03/20 13:48:36;;;;;;;19.27;12.63;;;;;;;;;;5079095;28;20024;-70
2022/03/20 13:51:04;;;;;;;17.13;12.30;;;;;;;;;;5095188;28;20028;-71
2022/03/20 13:53:30;;;;;;;18.83;12.85;;;;;;;;;;5091864;28;20104;-72
2022/03/20 13:55:56;;;;;;;16.33;11.32;;;;;;;;;;5084249;28;20522;-71
2022/03/20 13:58:22;;;;;;;14.45;10.30;;;;;;;;;;5088097;28;20101;-71
2022/03/20 14:00:59;;;;;;;15.02;9.95;;;;;;;;;;5092375;28;20046;-71
2022/03/20 14:03:30;;;;;;;13.45;9.98;;;;;;;;;;5077947;28;20064;-72
2022/03/20 14:05:56;;;;;;;15.73;10.73;;;;;;;;;;5074528;28;20024;-72
2022/03/20 14:08:22;;;;;;;15.65;10.77;;;;;;;;;;5086967;28;20055;-71
2022/03/20 14:10:52;;;;;;;17.65;10.43;;;;;;;;;;5089167;28;20028;-72
2022/03/20 14:13:19;;;;;;;16.05;10.65;;;;;;;;;;5088167;28;20069;-72
2022/03/20 14:16:10;;;;;;;15.95;10.65;;;;;;;;;;5079573;28;20107;-71
2022/03/20 14:18:37;;;;;;;;;;;;;;;;;;5091897;28;20024;-72
2022/03/20 14:21:16;;;;;;;14.80;11.23;;;;;;;;;;5081921;28;19998;-71
2022/03/20 14:24:06;;;;;;;18.08;11.77;;;;;;;;;;5085083;28;20398;-72
2022/03/20 14:26:36;;;;;;;17.98;11.32;;;;;;;;;;5091256;28;20051;-71
2022/03/20 14:29:02;;;;;;;18.83;11.57;;;;;;;;;;5088612;28;20232;-71
2022/03/20 14:39:47;;;;;;;18.58;11.85;;;;;;;;;;5090245;28;20039;-71
2022/03/20 14:42:26;;;;;;;15.88;11.65;;;;;;;;;;5076005;28;20421;-71
2022/03/20 14:45:03;;;;;;;16.98;11.18;;;;;;;;;;5076402;28;20048;-71
2022/03/20 14:47:29;;;;;;;15.35;11.15;;;;;;;;;;5080015;28;20120;-71
2022/03/20 14:49:56;;;;;;;14.93;11.05;;;;;;;;;;5080066;28;20024;-72
2022/03/20 14:52:26;;;;;;;17.27;11.43;;;;;;;;;;5080176;28;20039;-70
2022/03/20 14:54:52;;;;;;;17.95;11.48;;;;;;;;;;5072441;28;20115;-70
2022/03/20 14:57:19;;;;;;;18.35;11.60;;;;;;;;;;5088140;28;20027;-69
2022/03/20 14:59:45;;;;;;;17.27;11.68;;;;;;;;;;5085787;28;20530;-70
2022/03/20 15:02:15;;;;;;;34.05;20.95;;;;;;;;;;5079199;28;20028;-68
2022/03/20 15:04:41;;;;;;;23.73;15.52;;;;;;;;;;5083009;28;20073;-71